Time;durP1;ratioP1;P1;durP2;ratioP2;P2;SDS_P1;SDS_P2;PMS_P1;PMS_P2;Temp;Humidity;BMP_temperature;BMP_pressure;BME280_temperature;BME280_humidity;BME280_pressure;Samples;Min_cycle;Max_cycle;Signal;HPM_P1;HPM_P2
2022/09/09 00:00:21;;;;;;;;;;;;;;;;;;4866454;29;19927;-85
2022/09/09 00:02:49;;;;;;;;;;;;;;;;;;4858019;29;20574;-85
2022/09/09 00:05:15;;;;;;;;;;;;;;;;;;4885818;29;19931;-85
2022/09/09 00:07:41;;;;;;;;;;;;;;;;;;4877413;29;19931;-85
2022/09/09 00:10:07;;;;;;;;;;;;;;;;;;4863826;29;19931;-85
2022/09/09 00:12:33;;;;;;;;;;;;;;;;;;4878231;29;20023;-85
2022/09/09 00:15:00;;;;;;;;;;;;;;;;;;4882781;29;20085;-85
2022/09/09 00:17:26;;;;;;;;;;;;;;;;;;4885214;29;19927;-85
2022/09/09 00:19:52;;;;;;;;;;;;;;;;;;4877080;29;19923;-86
2022/09/09 00:22:18;;;;;;;;;;;;;;;;;;4880517;29;20299;-85
2022/09/09 00:24:44;;;;;;;;;;;;;;;;;;4864390;29;19932;-85
2022/09/09 00:27:10;;;;;;;;;;;;;;;;;;4851563;29;20283;-85
2022/09/09 00:29:37;;;;;;;;;;;;;;;;;;4841396;29;21201;-85
2022/09/09 00:32:03;;;;;;;;;;;;;;;;;;4858825;29;19927;-85
2022/09/09 00:34:29;;;;;;;;;;;;;;;;;;4842884;29;19930;-84
2022/09/09 00:36:55;;;;;;;;;;;;;;;;;;4861944;29;20282;-85
2022/09/09 00:39:20;;;;;;;;;;;;;;;;;;4861792;29;19923;-85
2022/09/09 00:41:46;;;;;;;;;;;;;;;;;;4854764;29;19986;-85
2022/09/09 00:44:13;;;;;;;;;;;;;;;;;;4860641;29;19931;-85
2022/09/09 00:46:39;;;;;;;;;;;;;;;;;;4852150;29;20010;-85
2022/09/09 00:49:05;;;;;;;;;;;;;;;;;;4863655;29;19924;-85
2022/09/09 00:51:31;;;;;;;;;;;;;;;;;;4855836;29;20030;-85
2022/09/09 00:53:57;;;;;;;;;;;;;;;;;;4851684;29;19928;-85
2022/09/09 00:56:23;;;;;;;;;;;;;;;;;;4867249;29;19927;-85
2022/09/09 00:58:50;;;;;;;;;;;;;;;;;;4856507;29;19931;-85
2022/09/09 01:01:16;;;;;;;;;;;;;;;;;;4863541;29;19927;-85
2022/09/09 01:03:42;;;;;;;;;;;;;;;;;;4856099;29;19942;-85
2022/09/09 01:06:07;;;;;;;;;;;;;;;;;;4851294;29;19932;-85
2022/09/09 01:08:33;;;;;;;;;;;;;;;;;;4858021;29;19924;-85
2022/09/09 01:10:59;;;;;;;;;;;;;;;;;;4849985;29;19935;-85
2022/09/09 01:13:25;;;;;;;;;;;;;;;;;;4847484;29;19927;-85
2022/09/09 01:15:53;;;;;;;;;;;;;;;;;;4845334;29;19923;-85
2022/09/09 01:18:19;;;;;;;;;;;;;;;;;;4849096;29;19930;-85
2022/09/09 01:20:45;;;;;;;;;;;;;;;;;;4858072;29;19931;-86
2022/09/09 01:23:12;;;;;;;;;;;;;;;;;;4852583;29;19938;-85
2022/09/09 01:25:38;;;;;;;;;;;;;;;;;;4863978;29;19931;-85
2022/09/09 01:28:04;;;;;;;;;;;;;;;;;;4866680;29;19930;-85
2022/09/09 01:30:30;;;;;;;;;;;;;;;;;;4859473;29;20397;-86
2022/09/09 01:32:58;;;;;;;;;;;;;;;;;;4862741;29;20351;-86
2022/09/09 01:35:24;;;;;;;;;;;;;;;;;;4861316;29;19942;-86
2022/09/09 01:37:50;;;;;;;;;;;;;;;;;;4839185;29;19935;-86
2022/09/09 01:40:15;;;;;;;;;;;;;;;;;;4849033;29;19934;-85
2022/09/09 01:42:41;;;;;;;;;;;;;;;;;;4861434;29;20065;-86
2022/09/09 01:45:07;;;;;;;;;;;;;;;;;;4859753;29;19975;-85
2022/09/09 01:47:33;;;;;;;;;;;;;;;;;;4858087;29;19934;-86
2022/09/09 01:49:59;;;;;;;;;;;;;;;;;;4863218;29;20454;-86
2022/09/09 01:52:25;;;;;;;;;;;;;;;;;;4846570;29;19932;-86
2022/09/09 01:54:51;;;;;;;;;;;;;;;;;;4855803;29;19936;-85
2022/09/09 01:57:17;;;;;;;;;;;;;;;;;;4852915;29;19930;-86
2022/09/09 01:59:43;;;;;;;;;;;;;;;;;;4857086;29;19924;-86
2022/09/09 02:02:09;;;;;;;;;;;;;;;;;;4858964;29;19931;-86
2022/09/09 02:04:35;;;;;;;;;;;;;;;;;;4857884;29;20021;-86
2022/09/09 02:07:01;;;;;;;;;;;;;;;;;;4851059;29;20046;-86
2022/09/09 02:09:29;;;;;;;;;;;;;;;;;;4867157;29;19923;-85
2022/09/09 02:11:56;;;;;;;;;;;;;;;;;;4865279;29;19983;-85
2022/09/09 02:14:21;;;;;;;;;;;;;;;;;;4844245;29;20662;-86
2022/09/09 02:16:47;;;;;;;;;;;;;;;;;;4843231;29;19939;-86
2022/09/09 02:19:13;;;;;;;;;;;;;;;;;;4851633;29;20295;-85
2022/09/09 02:21:39;;;;;;;;;;;;;;;;;;4847814;29;19927;-86
2022/09/09 02:24:07;;;;;;;;;;;;;;;;;;4861607;29;20371;-86
2022/09/09 02:26:33;;;;;;;;;;;;;;;;;;4836702;29;22360;-86
2022/09/09 02:28:59;;;;;;;;;;;;;;;;;;4851644;29;20462;-86
2022/09/09 02:31:26;;;;;;;;;;;;;;;;;;4852797;29;19987;-86
2022/09/09 02:33:52;;;;;;;;;;;;;;;;;;4862463;29;19967;-86
2022/09/09 02:36:18;;;;;;;;;;;;;;;;;;4862127;29;20447;-85
2022/09/09 02:38:45;;;;;;;;;;;;;;;;;;4836720;29;19931;-86
2022/09/09 02:41:11;;;;;;;;;;;;;;;;;;4859696;29;20015;-85
2022/09/09 02:43:37;;;;;;;;;;;;;;;;;;4851682;29;20292;-86
2022/09/09 02:46:03;;;;;;;;;;;;;;;;;;4865143;29;19924;-86
2022/09/09 02:48:29;;;;;;;;;;;;;;;;;;4848771;29;20306;-85
2022/09/09 02:50:55;;;;;;;;;;;;;;;;;;4849725;29;19975;-86
2022/09/09 02:53:21;;;;;;;;;;;;;;;;;;4866546;29;19931;-86
2022/09/09 02:55:48;;;;;;;;;;;;;;;;;;4865185;29;21694;-86
2022/09/09 02:58:16;;;;;;;;;;;;;;;;;;4856323;29;19935;-86
2022/09/09 03:00:42;;;;;;;;;;;;;;;;;;4848235;29;20409;-86
2022/09/09 03:03:09;;;;;;;;;;;;;;;;;;4864758;29;19924;-85
2022/09/09 03:05:35;;;;;;;;;;;;;;;;;;4843849;29;19931;-86
2022/09/09 03:08:02;;;;;;;;;;;;;;;;;;4857558;29;20384;-86
2022/09/09 03:10:28;;;;;;;;;;;;;;;;;;4865413;29;19975;-86
2022/09/09 03:12:55;;;;;;;;;;;;;;;;;;4883947;29;20023;-86
2022/09/09 03:15:21;;;;;;;;;;;;;;;;;;4872496;29;19967;-86
2022/09/09 03:17:47;;;;;;;;;;;;;;;;;;4847475;29;20439;-86
2022/09/09 03:20:13;;;;;;;;;;;;;;;;;;4846449;29;21363;-86
2022/09/09 03:22:39;;;;;;;;;;;;;;;;;;4853055;29;19932;-86
2022/09/09 03:25:05;;;;;;;;;;;;;;;;;;4863739;29;19928;-86
2022/09/09 03:27:31;;;;;;;;;;;;;;;;;;4854609;29;19938;-86
2022/09/09 03:29:57;;;;;;;;;;;;;;;;;;4846571;29;19959;-86
2022/09/09 03:32:26;;;;;;;;;;;;;;;;;;4841723;29;19929;-86
2022/09/09 03:34:55;;;;;;;;;;;;;;;;;;4852022;29;20327;-86
2022/09/09 03:37:22;;;;;;;;;;;;;;;;;;4860694;29;19931;-86
2022/09/09 03:39:48;;;;;;;;;;;;;;;;;;4841131;29;19932;-86
2022/09/09 03:42:14;;;;;;;;;;;;;;;;;;4845190;29;19932;-86
2022/09/09 03:44:40;;;;;;;;;;;;;;;;;;4841327;29;19935;-86
2022/09/09 03:47:06;;;;;;;;;;;;;;;;;;4878178;29;19938;-86
2022/09/09 03:49:32;;;;;;;;;;;;;;;;;;4852334;29;20295;-86
2022/09/09 03:51:58;;;;;;;;;;;;;;;;;;4841012;29;19931;-86
2022/09/09 03:54:24;;;;;;;;;;;;;;;;;;4838646;29;20359;-86
2022/09/09 03:56:50;;;;;;;;;;;;;;;;;;4839267;29;19931;-86
2022/09/09 03:59:16;;;;;;;;;;;;;;;;;;4857186;29;21097;-86
2022/09/09 04:01:42;;;;;;;;;;;;;;;;;;4851153;29;19935;-86
2022/09/09 04:04:09;;;;;;;;;;;;;;;;;;4842722;29;20026;-86
2022/09/09 04:06:35;;;;;;;;;;;;;;;;;;4837935;29;20276;-86
2022/09/09 04:09:03;;;;;;;;;;;;;;;;;;4858028;29;19938;-86
2022/09/09 04:11:34;;;;;;;;;;;;;;;;;;4853383;29;20427;-86
2022/09/09 04:14:00;;;;;;;;;;;;;;;;;;4860387;29;19931;-86
2022/09/09 04:16:29;;;;;;;;;;;;;;;;;;4861777;29;19937;-86
2022/09/09 04:18:55;;;;;;;;;;;;;;;;;;4858915;29;20011;-86
2022/09/09 04:21:22;;;;;;;;;;;;;;;;;;4861599;29;19953;-86
2022/09/09 04:23:48;;;;;;;;;;;;;;;;;;4855314;29;19935;-85
2022/09/09 04:26:17;;;;;;;;;;;;;;;;;;4856701;29;19971;-86
2022/09/09 04:28:42;;;;;;;;;;;;;;;;;;4853356;29;19978;-86
2022/09/09 04:31:09;;;;;;;;;;;;;;;;;;4856516;29;20383;-86
2022/09/09 04:33:35;;;;;;;;;;;;;;;;;;4838997;29;19934;-86
2022/09/09 04:36:01;;;;;;;;;;;;;;;;;;4838881;29;19947;-86
2022/09/09 04:38:30;;;;;;;;;;;;;;;;;;4865467;29;19931;-86
2022/09/09 04:40:56;;;;;;;;;;;;;;;;;;4857170;29;19923;-86
2022/09/09 04:43:23;;;;;;;;;;;;;;;;;;4856488;29;20054;-86
2022/09/09 04:45:48;;;;;;;;;;;;;;;;;;4853044;29;19985;-86
2022/09/09 04:48:15;;;;;;;;;;;;;;;;;;4862254;29;19931;-86
2022/09/09 04:50:41;;;;;;;;;;;;;;;;;;4859550;29;20022;-86
2022/09/09 04:53:07;;;;;;;;;;;;;;;;;;4861986;29;19931;-86
2022/09/09 04:55:34;;;;;;;;;;;;;;;;;;4838564;29;20106;-86
2022/09/09 04:58:00;;;;;;;;;;;;;;;;;;4858782;29;19924;-86
2022/09/09 05:00:29;;;;;;;;;;;;;;;;;;4854424;29;19938;-87
2022/09/09 05:02:55;;;;;;;;;;;;;;;;;;4840410;29;19928;-86
2022/09/09 05:05:21;;;;;;;;;;;;;;;;;;4833423;29;19931;-86
2022/09/09 05:07:47;;;;;;;;;;;;;;;;;;4842803;29;19928;-86
2022/09/09 05:10:14;;;;;;;;;;;;;;;;;;4859857;29;19974;-86
2022/09/09 05:15:44;;;;;;;;;;;;;;;;;;4856066;29;19995;-86
2022/09/09 05:18:10;;;;;;;;;;;;;;;;;;4841299;29;20625;-86
2022/09/09 05:20:36;;;;;;;;;;;;;;;;;;4841047;29;19931;-86
2022/09/09 05:23:02;;;;;;;;;;;;;;;;;;4843418;29;19927;-87
2022/09/09 05:25:28;;;;;;;;;;;;;;;;;;4854578;29;19943;-86
2022/09/09 05:27:54;;;;;;;;;;;;;;;;;;4846201;29;19982;-86
2022/09/09 05:30:21;;;;;;;;;;;;;;;;;;4860788;29;20133;-86
2022/09/09 05:32:49;;;;;;;;;;;;;;;;;;4865046;29;21333;-86
2022/09/09 05:35:17;;;;;;;;;;;;;;;;;;4858716;29;19938;-86
2022/09/09 05:37:45;;;;;;;;;;;;;;;;;;4841376;29;19979;-86
2022/09/09 05:40:12;;;;;;;;;;;;;;;;;;4841516;29;19931;-86
2022/09/09 05:42:38;;;;;;;;;;;;;;;;;;4845577;29;19932;-86
2022/09/09 05:45:04;;;;;;;;;;;;;;;;;;4864507;29;19983;-86
2022/09/09 05:47:30;;;;;;;;;;;;;;;;;;4853266;29;20450;-85
2022/09/09 05:49:56;;;;;;;;;;;;;;;;;;4849796;29;19935;-86
2022/09/09 05:52:23;;;;;;;;;;;;;;;;;;4859095;29;19927;-86
2022/09/09 05:54:49;;;;;;;;;;;;;;;;;;4843401;29;21167;-86
2022/09/09 05:57:15;;;;;;;;;;;;;;;;;;4866557;29;19972;-86
2022/09/09 05:59:41;;;;;;;;;;;;;;;;;;4856548;29;19931;-87
2022/09/09 06:02:09;;;;;;;;;;;;;;;;;;4850059;29;20801;-86
2022/09/09 06:04:35;;;;;;;;;;;;;;;;;;4865089;29;19939;-87
2022/09/09 06:07:01;;;;;;;;;;;;;;;;;;4849414;29;20339;-86
2022/09/09 06:09:30;;;;;;;;;;;;;;;;;;4856748;29;20034;-86
2022/09/09 06:15:15;;;;;;;;;;;;;;;;;;4807725;29;20592;-86
2022/09/09 06:17:41;;;;;;;;;;;;;;;;;;4762160;29;19933;-86
2022/09/09 06:20:09;;;;;;;;;;;;;;;;;;4802092;29;19975;-86
2022/09/09 06:22:35;;;;;;;;;;;;;;;;;;4853737;29;20249;-86
2022/09/09 06:35:13;;;;;;;;;;;;;;;;;;4844176;29;20015;-87
2022/09/09 06:41:34;;;;;;;;;;;;;;;;;;4744554;30;21233;-87
2022/09/09 06:44:00;;;;;;;;;;;;;;;;;;4770328;29;19959;-87
2022/09/09 06:46:30;;;;;;;;;;;;;;;;;;4846207;29;23453;-82
2022/09/09 06:48:57;;;;;;;;;;;;;;;;;;4873533;29;19930;-82
2022/09/09 06:51:23;;;;;;;;;;;;;;;;;;4874772;29;19931;-82
2022/09/09 06:53:49;;;;;;;;;;;;;;;;;;4864918;29;19986;-82
2022/09/09 06:56:15;;;;;;;;;;;;;;;;;;4866686;29;19927;-83
2022/09/09 06:58:42;;;;;;;;;;;;;;;;;;4865042;29;19970;-82
2022/09/09 07:01:09;;;;;;;;;;;;;;;;;;4869900;29;20377;-83
2022/09/09 07:03:35;;;;;;;;;;;;;;;;;;4883990;29;19933;-82
2022/09/09 07:06:01;;;;;;;;;;;;;;;;;;4865869;29;19936;-82
2022/09/09 07:08:28;;;;;;;;;;;;;;;;;;4854134;29;20431;-82
2022/09/09 07:10:53;;;;;;;;;;;;;;;;;;4866413;29;19931;-82
2022/09/09 07:13:24;;;;;;;;;;;;;;;;;;4868827;29;20299;-84
2022/09/09 07:15:50;;;;;;;;;;;;;;;;;;4862176;29;20407;-83
2022/09/09 07:18:16;;;;;;;;;;;;;;;;;;4852027;29;20456;-82
2022/09/09 07:20:42;;;;;;;;;;;;;;;;;;4859999;29;20403;-83
2022/09/09 07:23:08;;;;;;;;;;;;;;;;;;4850939;29;19946;-79
2022/09/09 07:25:34;;;;;;;;;;;;;;;;;;4863304;29;19971;-80
2022/09/09 07:28:00;;;;;;;;;;;;;;;;;;4866676;29;19931;-78
2022/09/09 07:30:26;;;;;;;;;;;;;;;;;;4865669;29;19931;-81
2022/09/09 07:32:52;;;;;;;;;;;;;;;;;;4850505;29;19960;-85
2022/09/09 07:35:18;;;;;;;;;;;;;;;;;;4861262;29;20396;-83
2022/09/09 07:37:45;;;;;;;;;;;;;;;;;;4864526;29;19933;-83
2022/09/09 07:40:10;;;;;;;;;;;;;;;;;;4869263;29;19932;-81
2022/09/09 07:42:37;;;;;;;;;;;;;;;;;;4846550;29;19934;-82
2022/09/09 07:45:03;;;;;;;;;;;;;;;;;;4853852;29;19932;-82
2022/09/09 07:47:29;;;;;;;;;;;;;;;;;;4845114;29;20215;-82
2022/09/09 07:49:55;;;;;;;;;;;;;;;;;;4867014;29;19935;-82
2022/09/09 07:52:21;;;;;;;;;;;;;;;;;;4866699;29;20425;-83
2022/09/09 07:54:47;;;;;;;;;;;;;;;;;;4865148;29;21219;-83
2022/09/09 07:57:13;;;;;;;;;;;;;;;;;;4853652;29;19932;-82
2022/09/09 07:59:39;;;;;;;;;;;;;;;;;;4869191;29;19930;-82
2022/09/09 08:02:06;;;;;;;;;;;;;;;;;;4854839;29;20477;-82
2022/09/09 08:04:32;;;;;;;;;;;;;;;;;;4867845;29;19932;-83
2022/09/09 08:06:58;;;;;;;;;;;;;;;;;;4870713;29;19932;-82
2022/09/09 08:09:26;;;;;;;;;;;;;;;;;;4872585;29;19927;-82
2022/09/09 08:11:52;;;;;;;;;;;;;;;;;;4868767;29;19983;-83
2022/09/09 08:14:18;;;;;;;;;;;;;;;;;;4864205;29;20331;-82
2022/09/09 08:16:44;;;;;;;;;;;;;;;;;;4847915;29;20370;-82
2022/09/09 08:19:10;;;;;;;;;;;;;;;;;;4856213;29;20485;-82
2022/09/09 08:21:36;;;;;;;;;;;;;;;;;;4865626;29;19923;-82
2022/09/09 08:24:02;;;;;;;;;;;;;;;;;;4873502;29;19931;-83
2022/09/09 08:26:28;;;;;;;;;;;;;;;;;;4867168;29;19931;-82
2022/09/09 08:28:54;;;;;;;;;;;;;;;;;;4867511;29;19927;-82
2022/09/09 08:31:20;;;;;;;;;;;;;;;;;;4858904;29;20408;-83
2022/09/09 08:33:46;;;;;;;;;;;;;;;;;;4849097;29;19984;-82
2022/09/09 08:36:13;;;;;;;;;;;;;;;;;;4864687;29;19943;-83
2022/09/09 08:38:39;;;;;;;;;;;;;;;;;;4862782;29;22978;-83
2022/09/09 08:41:05;;;;;;;;;;;;;;;;;;4863265;29;20294;-83
2022/09/09 08:43:32;;;;;;;;;;;;;;;;;;4861847;29;20413;-83
2022/09/09 08:45:59;;;;;;;;;;;;;;;;;;4861663;29;20019;-82
2022/09/09 08:48:25;;;;;;;;;;;;;;;;;;4846357;29;19932;-82
2022/09/09 08:50:51;;;;;;;;;;;;;;;;;;4850149;29;20438;-82
2022/09/09 08:53:17;;;;;;;;;;;;;;;;;;4870071;29;20455;-83
2022/09/09 08:55:43;;;;;;;;;;;;;;;;;;4856986;29;19923;-82
2022/09/09 08:58:09;;;;;;;;;;;;;;;;;;4865229;29;20014;-82
2022/09/09 09:00:35;;;;;;;;;;;;;;;;;;4873947;29;19927;-82
2022/09/09 09:03:01;;;;;;;;;;;;;;;;;;4875959;29;20034;-82
2022/09/09 09:05:27;;;;;;;;;;;;;;;;;;4872521;29;20386;-83
2022/09/09 09:07:53;;;;;;;;;;;;;;;;;;4863024;29;20342;-82
2022/09/09 09:10:19;;;;;;;;;;;;;;;;;;4878303;29;19928;-82
2022/09/09 09:12:47;;;;;;;;;;;;;;;;;;4878513;29;20047;-82
2022/09/09 09:15:13;;;;;;;;;;;;;;;;;;4898587;29;20298;-82
2022/09/09 09:17:39;;;;;;;;;;;;;;;;;;4875821;29;19924;-82
2022/09/09 09:20:05;;;;;;;;;;;;;;;;;;4879832;29;20064;-82
2022/09/09 09:22:32;;;;;;;;;;;;;;;;;;4875485;29;20026;-82
2022/09/09 09:24:58;;;;;;;;;;;;;;;;;;4876097;29;21854;-82
2022/09/09 09:27:24;;;;;;;;;;;;;;;;;;4870885;29;19932;-83
2022/09/09 09:29:51;;;;;;;;;;;;;;;;;;4849767;29;19935;-82
2022/09/09 09:32:17;;;;;;;;;;;;;;;;;;4873787;29;19947;-82
2022/09/09 09:34:43;;;;;;;;;;;;;;;;;;4855696;29;19927;-82
2022/09/09 09:37:09;;;;;;;;;;;;;;;;;;4869894;29;20417;-82
2022/09/09 09:39:39;;;;;;;;;;;;;;;;;;4852954;29;20374;-82
2022/09/09 09:42:06;;;;;;;;;;;;;;;;;;4869321;29;19931;-82
2022/09/09 09:44:32;;;;;;;;;;;;;;;;;;4868388;29;20379;-82
2022/09/09 09:46:57;;;;;;;;;;;;;;;;;;4872525;29;19923;-83
2022/09/09 09:49:23;;;;;;;;;;;;;;;;;;4854992;29;20002;-80
2022/09/09 09:51:52;;;;;;;;;;;;;;;;;;4851195;29;19938;-80
2022/09/09 09:54:18;;;;;;;;;;;;;;;;;;4857615;29;19935;-81
2022/09/09 09:56:44;;;;;;;;;;;;;;;;;;4868287;29;19927;-80
2022/09/09 09:59:10;;;;;;;;;;;;;;;;;;4872835;29;20282;-80
2022/09/09 10:01:36;;;;;;;;;;;;;;;;;;4867185;29;19934;-80
2022/09/09 10:04:02;;;;;;;;;;;;;;;;;;4856820;29;20355;-81
2022/09/09 10:06:28;;;;;;;;;;;;;;;;;;4855164;29;19969;-80
2022/09/09 10:08:54;;;;;;;;;;;;;;;;;;4869316;29;19935;-80
2022/09/09 10:11:21;;;;;;;;;;;;;;;;;;4857127;29;20295;-80
2022/09/09 10:13:47;;;;;;;;;;;;;;;;;;4867778;29;19936;-81
2022/09/09 10:16:13;;;;;;;;;;;;;;;;;;4872411;29;19987;-81
2022/09/09 10:18:44;;;;;;;;;;;;;;;;;;4875433;29;20381;-81
2022/09/09 10:21:10;;;;;;;;;;;;;;;;;;4874184;29;19923;-81
2022/09/09 10:23:40;;;;;;;;;;;;;;;;;;4850853;29;19931;-81
2022/09/09 10:26:09;;;;;;;;;;;;;;;;;;4853889;29;19975;-80
2022/09/09 10:28:48;;;;;;;;;;;;;;;;;;4898528;29;20001;-81
2022/09/09 10:31:19;;;;;;;;;;;;;;;;;;4892671;29;19923;-80
2022/09/09 10:33:55;;;;;;;;;;;;;;;;;;4881564;29;20514;-80
2022/09/09 10:36:25;;;;;;;;;;;;;;;;;;4887796;29;20022;-80
2022/09/09 10:38:51;;;;;;;;;;;;;;;;;;4888631;29;20516;-80
2022/09/09 10:41:20;;;;;;;;;;;;;;;;;;4889733;29;20495;-80
2022/09/09 10:46:49;;;;;;;;;;;;;;;;;;4859375;29;19982;-80
2022/09/09 10:49:30;;;;;;;;;;;;;;;;;;4855353;29;19938;-80
2022/09/09 10:52:12;;;;;;;;;;;;;;;;;;4834450;29;19938;-80
2022/09/09 10:54:41;;;;;;;;;;;;;;;;;;4846891;29;19936;-80
2022/09/09 10:57:10;;;;;;;;;;;;;;;;;;4834789;29;19932;-80
2022/09/09 10:59:36;;;;;;;;;;;;;;;;;;4828758;29;20022;-80
2022/09/09 11:02:02;;;;;;;;;;;;;;;;;;4834756;29;19932;-80
2022/09/09 11:04:37;;;;;;;;;;;;;;;;;;4838226;29;19932;-80
2022/09/09 11:07:08;;;;;;;;;;;;;;;;;;4848309;29;20287;-80
2022/09/09 11:09:45;;;;;;;;;;;;;;;;;;;;;
2022/09/09 11:12:30;;;;;;;;;;;;;;;;;;4864272;29;19967;-80
2022/09/09 11:15:15;;;;;;;;;;;;;;;;;;4858101;29;20014;-80
2022/09/09 11:17:50;;;;;;;;;;;;;;;;;;4832985;29;19928;-80
2022/09/09 11:20:38;;;;;;;;;;;;;;;;;;;;;
2022/09/09 11:23:09;;;;;;;;;;;;;;;;;;4889373;29;19932;-80
2022/09/09 11:28:36;;;;;;;;;;;;;;;;;;4879530;29;19942;-80
2022/09/09 11:31:08;;;;;;;;;;;;;;;;;;4881365;29;19929;-80
2022/09/09 11:33:44;;;;;;;;;;;;;;;;;;4874119;29;19926;-79
2022/09/09 11:36:21;;;;;;;;;;;;;;;;;;4872481;29;19935;-79
2022/09/09 11:39:05;;;;;;;;;;;;;;;;;;4888654;29;20831;-80
2022/09/09 11:41:47;;;;;;;;;;;;;;;;;;4882125;29;19930;-80
2022/09/09 11:47:22;;;;;;;;;;;;;;;;;;4841380;29;20249;-86
2022/09/09 11:49:48;;;;;;;;;;;;;;;;;;4897009;29;22515;-85
2022/09/09 11:52:14;;;;;;;;;;;;;;;;;;4887134;29;21103;-85
2022/09/09 11:54:40;;;;;;;;;;;;;;;;;;4884376;29;19930;-86
2022/09/09 11:57:06;;;;;;;;;;;;;;;;;;4883215;29;19930;-85
2022/09/09 11:59:32;;;;;;;;;;;;;;;;;;4879819;29;20041;-86
2022/09/09 12:01:58;;;;;;;;;;;;;;;;;;4887556;29;20421;-86
2022/09/09 12:04:25;;;;;;;;;;;;;;;;;;4881773;29;19927;-86
2022/09/09 12:06:51;;;;;;;;;;;;;;;;;;4898798;29;19986;-86
2022/09/09 12:09:19;;;;;;;;;;;;;;;;;;4885875;29;20052;-86
2022/09/09 12:11:45;;;;;;;;;;;;;;;;;;4874254;29;20022;-86
2022/09/09 12:14:11;;;;;;;;;;;;;;;;;;4904329;29;19923;-86
2022/09/09 12:16:38;;;;;;;;;;;;;;;;;;4893150;29;19923;-86
2022/09/09 12:19:04;;;;;;;;;;;;;;;;;;4895621;29;19945;-86
2022/09/09 12:21:31;;;;;;;;;;;;;;;;;;4898583;29;19927;-86
2022/09/09 12:23:57;;;;;;;;;;;;;;;;;;4913734;29;19931;-86
2022/09/09 12:26:23;;;;;;;;;;;;;;;;;;4883326;29;20006;-86
2022/09/09 12:28:52;;;;;;;;;;;;;;;;;;4888163;29;20681;-86
2022/09/09 12:31:18;;;;;;;;;;;;;;;;;;4901678;29;19926;-86
2022/09/09 12:33:45;;;;;;;;;;;;;;;;;;4894102;29;19933;-86
2022/09/09 12:36:12;;;;;;;;;;;;;;;;;;4897781;29;19926;-85
2022/09/09 12:38:38;;;;;;;;;;;;;;;;;;4900527;29;20384;-87
2022/09/09 12:41:04;;;;;;;;;;;;;;;;;;4878781;29;20014;-86
2022/09/09 12:43:30;;;;;;;;;;;;;;;;;;4896935;29;20043;-85
2022/09/09 12:45:57;;;;;;;;;;;;;;;;;;4891536;29;20029;-85
2022/09/09 12:48:23;;;;;;;;;;;;;;;;;;4908412;29;19934;-85
2022/09/09 12:50:49;;;;;;;;;;;;;;;;;;4898184;29;20738;-85
2022/09/09 12:53:15;;;;;;;;;;;;;;;;;;4886036;29;19923;-85
2022/09/09 12:55:41;;;;;;;;;;;;;;;;;;4893820;29;20410;-85
2022/09/09 12:58:07;;;;;;;;;;;;;;;;;;4890624;29;19923;-86
2022/09/09 13:00:33;;;;;;;;;;;;;;;;;;4894179;29;19922;-86
2022/09/09 13:02:59;;;;;;;;;;;;;;;;;;4891764;29;19942;-85
2022/09/09 13:05:25;;;;;;;;;;;;;;;;;;4892414;29;19934;-86
2022/09/09 13:07:51;;;;;;;;;;;;;;;;;;4884373;29;19927;-86
2022/09/09 13:22:27;;;;;;;;;;;;;;;;;;4823890;29;19996;-86
2022/09/09 13:24:53;;;;;;;;;;;;;;;;;;4824041;29;19936;-86
2022/09/09 13:27:23;;;;;;;;;;;;;;;;;;4895597;29;19931;-86
2022/09/09 13:29:49;;;;;;;;;;;;;;;;;;4912306;28;19931;-86
2022/09/09 13:32:21;;;;;;;;;;;;;;;;;;4895315;29;19923;-86
2022/09/09 15:17:25;;;;;;;;;;;;;;;;;;5511914;23;19935;-81
2022/09/09 15:19:54;;;;;;;;;;;;;;;;;;4943278;28;20034;-82
2022/09/09 15:22:20;;;;;;;;;;;;;;;;;;4912875;29;20399;-81
2022/09/09 15:24:47;;;;;;;;;;;;;;;;;;4914888;28;19934;-81
2022/09/09 15:27:14;;;;;;;;;;;;;;;;;;4917697;28;19927;-80
2022/09/09 15:29:40;;;;;;;;;;;;;;;;;;4917881;28;19930;-81
2022/09/09 15:32:09;;;;;;;;;;;;;;;;;;4913823;29;19931;-80
2022/09/09 15:34:35;;;;;;;;;;;;;;;;;;4930933;28;19973;-81
2022/09/09 15:37:03;;;;;;;;;;;;;;;;;;4937870;29;19985;-80
2022/09/09 15:39:32;;;;;;;;;;;;;;;;;;4926019;28;19926;-81
2022/09/09 15:42:00;;;;;;;;;;;;;;;;;;4899202;28;19937;-80
2022/09/09 15:44:29;;;;;;;;;;;;;;;;;;4907962;28;19941;-77
2022/09/09 15:46:55;;;;;;;;;;;;;;;;;;4938486;28;19930;-81
2022/09/09 15:49:25;;;;;;;;;;;;;;;;;;4932982;28;19930;-81
2022/09/09 15:52:06;;;;;;;;;;;;;;;;;;4899904;29;20444;-80
2022/09/09 15:54:43;;;;;;;;;;;;;;;;;;4933298;28;19934;-80
2022/09/09 15:57:09;;;;;;;;;;;;;;;;;;4919785;29;20382;-80
2022/09/09 15:59:35;;;;;;;;;;;;;;;;;;4929925;28;20013;-80
2022/09/09 16:02:01;;;;;;;;;;;;;;;;;;4918524;28;20378;-80
2022/09/09 16:04:28;;;;;;;;;;;;;;;;;;4904218;29;19930;-81
2022/09/09 16:06:54;;;;;;;;;;;;;;;;;;4908529;29;19926;-80
2022/09/09 16:09:24;;;;;;;;;;;;;;;;;;4926028;28;19930;-80
2022/09/09 16:11:50;;;;;;;;;;;;;;;;;;4924064;28;19938;-80
2022/09/09 16:14:17;;;;;;;;;;;;;;;;;;4910198;29;19938;-80
2022/09/09 16:16:43;;;;;;;;;;;;;;;;;;4908550;28;19938;-80
2022/09/09 16:19:09;;;;;;;;;;;;;;;;;;4927277;28;20493;-80
2022/09/09 16:21:35;;;;;;;;;;;;;;;;;;4910308;28;19934;-80
2022/09/09 16:24:02;;;;;;;;;;;;;;;;;;4916126;28;20328;-80
2022/09/09 16:26:28;;;;;;;;;;;;;;;;;;4927720;28;19931;-80
2022/09/09 16:28:54;;;;;;;;;;;;;;;;;;4909541;28;19931;-80
2022/09/09 16:31:20;;;;;;;;;;;;;;;;;;4928870;28;20476;-80
2022/09/09 16:33:47;;;;;;;;;;;;;;;;;;4905915;29;19926;-80
2022/09/09 16:36:13;;;;;;;;;;;;;;;;;;4911680;28;19973;-80
2022/09/09 16:38:42;;;;;;;;;;;;;;;;;;4922152;28;19982;-80
2022/09/09 16:41:08;;;;;;;;;;;;;;;;;;4909022;29;19930;-80
2022/09/09 16:43:34;;;;;;;;;;;;;;;;;;4890834;29;19933;-87
2022/09/09 16:46:04;;;;;;;;;;;;;;;;;;4893523;29;20036;-87
2022/09/09 16:48:30;;;;;;;;;;;;;;;;;;4893259;28;19930;-86
2022/09/09 16:50:56;;;;;;;;;;;;;;;;;;4895818;29;19941;-86
2022/09/09 16:53:22;;;;;;;;;;;;;;;;;;4914263;28;19941;-88
2022/09/09 16:55:48;;;;;;;;;;;;;;;;;;4884261;28;20602;-87
2022/09/09 16:58:14;;;;;;;;;;;;;;;;;;4908007;29;19995;-87
2022/09/09 17:00:40;;;;;;;;;;;;;;;;;;4909907;28;20072;-87
2022/09/09 17:03:06;;;;;;;;;;;;;;;;;;4910664;29;20313;-87
2022/09/09 17:05:35;;;;;;;;;;;;;;;;;;4919461;28;19930;-87
2022/09/09 17:08:01;;;;;;;;;;;;;;;;;;4912139;29;19927;-87
2022/09/09 17:10:30;;;;;;;;;;;;;;;;;;4928000;28;19931;-87
2022/09/09 17:12:56;;;;;;;;;;;;;;;;;;4927165;28;19949;-86
2022/09/09 17:15:23;;;;;;;;;;;;;;;;;;4926307;28;20317;-87
2022/09/09 17:17:52;;;;;;;;;;;;;;;;;;4919055;28;19966;-86
2022/09/09 17:20:18;;;;;;;;;;;;;;;;;;4906594;28;22733;-86
2022/09/09 17:22:44;;;;;;;;;;;;;;;;;;4884652;28;19930;-87
2022/09/09 17:25:11;;;;;;;;;;;;;;;;;;4911864;29;19986;-87
2022/09/09 17:27:36;;;;;;;;;;;;;;;;;;4909444;28;19934;-87
2022/09/09 17:30:03;;;;;;;;;;;;;;;;;;4899767;29;19930;-87
2022/09/09 17:32:30;;;;;;;;;;;;;;;;;;4896171;28;20289;-86
2022/09/09 17:34:57;;;;;;;;;;;;;;;;;;4899071;29;20005;-87
2022/09/09 17:37:23;;;;;;;;;;;;;;;;;;4933502;28;19927;-87
2022/09/09 17:39:49;;;;;;;;;;;;;;;;;;4914097;28;20008;-87
2022/09/09 17:42:15;;;;;;;;;;;;;;;;;;4931846;28;19958;-87
2022/09/09 17:44:42;;;;;;;;;;;;;;;;;;4931125;28;20025;-85
2022/09/09 17:47:08;;;;;;;;;;;;;;;;;;4922747;29;19942;-87
2022/09/09 17:49:37;;;;;;;;;;;;;;;;;;4930840;28;20422;-87
2022/09/09 17:52:03;;;;;;;;;;;;;;;;;;4916994;29;20009;-87
2022/09/09 17:54:29;;;;;;;;;;;;;;;;;;4903857;28;20073;-87
2022/09/09 17:56:57;;;;;;;;;;;;;;;;;;4927285;29;19931;-86
2022/09/09 17:59:24;;;;;;;;;;;;;;;;;;4927011;29;19933;-86
2022/09/09 18:01:51;;;;;;;;;;;;;;;;;;4913181;28;19930;-86
2022/09/09 18:04:17;;;;;;;;;;;;;;;;;;4923817;29;19927;-86
2022/09/09 18:06:43;;;;;;;;;;;;;;;;;;4917057;28;20482;-86
2022/09/09 18:09:09;;;;;;;;;;;;;;;;;;4917417;28;20015;-86
2022/09/09 18:11:37;;;;;;;;;;;;;;;;;;4935102;28;19934;-87
2022/09/09 18:14:06;;;;;;;;;;;;;;;;;;4927721;29;19977;-86
2022/09/09 18:16:35;;;;;;;;;;;;;;;;;;4906682;28;20370;-86
2022/09/09 18:19:02;;;;;;;;;;;;;;;;;;4924771;28;19930;-86
2022/09/09 18:21:28;;;;;;;;;;;;;;;;;;4922713;28;19981;-87
2022/09/09 18:23:55;;;;;;;;;;;;;;;;;;4923268;29;19931;-86
2022/09/09 18:26:21;;;;;;;;;;;;;;;;;;4927802;29;19970;-87
2022/09/09 18:28:48;;;;;;;;;;;;;;;;;;4917691;28;20365;-87
2022/09/09 18:31:14;;;;;;;;;;;;;;;;;;4929304;28;19930;-88
2022/09/09 18:33:40;;;;;;;;;;;;;;;;;;4895423;28;20263;-87
2022/09/09 20:03:06;;;;;;;;;;;;;;;;;;4906311;29;20041;-88
2022/09/09 20:05:32;;;;;;;;;;;;;;;;;;4894646;29;19923;-88
2022/09/09 20:07:58;;;;;;;;;;;;;;;;;;4911081;29;20266;-88
2022/09/09 20:10:24;;;;;;;;;;;;;;;;;;4898912;29;19934;-87
2022/09/09 20:12:50;;;;;;;;;;;;;;;;;;4913396;29;19931;-87
2022/09/09 20:15:16;;;;;;;;;;;;;;;;;;4901985;29;19938;-87
2022/09/09 20:17:42;;;;;;;;;;;;;;;;;;4894969;29;20011;-87
2022/09/09 20:20:08;;;;;;;;;;;;;;;;;;4884699;29;19950;-87
2022/09/09 20:22:35;;;;;;;;;;;;;;;;;;4902796;28;20021;-87
2022/09/09 20:25:06;;;;;;;;;;;;;;;;;;4916737;29;19927;-88
2022/09/09 20:27:32;;;;;;;;;;;;;;;;;;4930210;28;19978;-88
2022/09/09 20:30:00;;;;;;;;;;;;;;;;;;4916382;29;20278;-87
2022/09/09 20:32:26;;;;;;;;;;;;;;;;;;4915461;29;19926;-87
2022/09/09 20:34:55;;;;;;;;;;;;;;;;;;4914829;29;19938;-87